N583VC KEYW-KDTS
Flight info
| Callsign | N583VC |
|---|---|
| Flight time | 2h 1m |
| Altitude | 26000 |
| Route | BUFTT1 GUFFS |
| Aircraft | B60T/L-SDFGRY/C |
Departure
| Time | 2026-04-19 00:00 |
|---|---|
| Airport | Key West International Airport (KEYW) |
Arrival
| Time | 2026-04-19 02:02 |
|---|---|
| Airport | Destin Executive Airport (KDTS) |
| Time | Latitude | Longitude | Altitude | Speed | Heading |
|---|---|---|---|---|---|
| 2026-04-18 23:54 | 24.55477 | -81.75626 | 13 ft | 0 kts | 356° |
| 2026-04-18 23:56 | 24.55482 | -81.75625 | 13 ft | 3 kts | 33° |
| 2026-04-18 23:57 | 24.55492 | -81.75599 | 14 ft | 6 kts | 64° |
| 2026-04-18 23:57 | 24.55531 | -81.75627 | 14 ft | 15 kts | 271° |
| 2026-04-18 23:57 | 24.55528 | -81.75729 | 14 ft | 10 kts | 271° |
| 2026-04-18 23:57 | 24.55527 | -81.75823 | 14 ft | 16 kts | 269° |
| 2026-04-18 23:58 | 24.55526 | -81.75979 | 9 ft | 23 kts | 269° |
| 2026-04-18 23:58 | 24.55525 | -81.76155 | 7 ft | 22 kts | 270° |
| 2026-04-18 23:58 | 24.55523 | -81.76311 | 7 ft | 18 kts | 269° |
| 2026-04-18 23:58 | 24.55522 | -81.76438 | 6 ft | 16 kts | 269° |
| 2026-04-18 23:59 | 24.55521 | -81.76553 | 6 ft | 14 kts | 269° |
| 2026-04-18 23:59 | 24.55541 | -81.76645 | 8 ft | 12 kts | 335° |
| 2026-04-18 23:59 | 24.55604 | -81.76603 | 8 ft | 25 kts | 84° |
| 2026-04-18 23:59 | 24.55611 | -81.76150 | 8 ft | 90 kts | 90° |
| 2026-04-19 00:00 | 24.55619 | -81.75351 | 104 ft | 112 kts | 89° |
| 2026-04-19 00:00 | 24.55656 | -81.74460 | 461 ft | 118 kts | 74° |
| 2026-04-19 00:00 | 24.56100 | -81.73689 | 812 ft | 130 kts | 49° |
| 2026-04-19 00:00 | 24.56725 | -81.72910 | 1049 ft | 139 kts | 44° |
| 2026-04-19 00:01 | 24.57685 | -81.72429 | 963 ft | 165 kts | 22° |
| 2026-04-19 00:01 | 24.58865 | -81.72252 | 845 ft | 179 kts | 351° |
| 2026-04-19 00:01 | 24.60000 | -81.72669 | 1161 ft | 167 kts | 347° |
| 2026-04-19 00:01 | 24.61108 | -81.72818 | 1465 ft | 156 kts | 6° |
| 2026-04-19 00:02 | 24.62193 | -81.72732 | 1794 ft | 158 kts | 9° |
| 2026-04-19 00:02 | 24.63297 | -81.72633 | 2134 ft | 160 kts | 8° |
| 2026-04-19 00:02 | 24.64388 | -81.72536 | 2611 ft | 152 kts | 8° |
| 2026-04-19 00:02 | 24.65431 | -81.72444 | 2987 ft | 159 kts | 9° |
| 2026-04-19 00:03 | 24.66562 | -81.72338 | 3354 ft | 158 kts | 7° |
| 2026-04-19 00:03 | 24.67583 | -81.72256 | 4014 ft | 143 kts | 9° |
| 2026-04-19 00:03 | 24.68558 | -81.72171 | 4556 ft | 141 kts | 7° |
| 2026-04-19 00:03 | 24.69541 | -81.72077 | 5026 ft | 143 kts | 8° |
| 2026-04-19 00:04 | 24.70540 | -81.71987 | 5474 ft | 145 kts | 7° |
| 2026-04-19 00:04 | 24.71548 | -81.71895 | 5935 ft | 145 kts | 10° |
| 2026-04-19 00:04 | 24.72454 | -81.71471 | 6377 ft | 142 kts | 43° |
| 2026-04-19 00:04 | 24.73136 | -81.70694 | 6801 ft | 141 kts | 51° |
| 2026-04-19 00:05 | 24.73586 | -81.70178 | 7086 ft | 141 kts | 48° |
| 2026-04-19 00:05 | 24.74258 | -81.69405 | 7523 ft | 139 kts | 49° |
| 2026-04-19 00:05 | 24.74925 | -81.68627 | 7906 ft | 142 kts | 50° |
| 2026-04-19 00:05 | 24.75606 | -81.67830 | 8337 ft | 144 kts | 50° |
| 2026-04-19 00:06 | 24.76529 | -81.66754 | 8948 ft | 147 kts | 48° |
| 2026-04-19 00:06 | 24.77002 | -81.66201 | 9275 ft | 147 kts | 48° |
| 2026-04-19 00:06 | 24.77708 | -81.65378 | 9765 ft | 148 kts | 47° |
| 2026-04-19 00:06 | 24.78415 | -81.64554 | 10213 ft | 148 kts | 47° |
| 2026-04-19 00:07 | 24.79114 | -81.63738 | 10645 ft | 148 kts | 46° |
| 2026-04-19 00:07 | 24.79821 | -81.62912 | 11080 ft | 149 kts | 46° |
| 2026-04-19 00:07 | 24.80534 | -81.62080 | 11526 ft | 149 kts | 45° |
| 2026-04-19 00:07 | 24.81247 | -81.61246 | 11986 ft | 149 kts | 45° |
| 2026-04-19 00:08 | 24.81964 | -81.60409 | 12446 ft | 151 kts | 45° |
| 2026-04-19 00:08 | 24.82688 | -81.59564 | 12901 ft | 153 kts | 45° |
| 2026-04-19 00:08 | 24.83524 | -81.58856 | 13347 ft | 153 kts | 20° |
| 2026-04-19 00:08 | 24.84527 | -81.58507 | 13806 ft | 153 kts | 18° |
| 2026-04-19 00:09 | 24.85543 | -81.58135 | 14217 ft | 154 kts | 18° |
| 2026-04-19 00:09 | 24.86561 | -81.57765 | 14630 ft | 154 kts | 18° |
| 2026-04-19 00:09 | 24.87580 | -81.57398 | 15040 ft | 155 kts | 18° |
| 2026-04-19 00:09 | 24.88614 | -81.57024 | 15431 ft | 156 kts | 18° |
| 2026-04-19 00:10 | 24.89642 | -81.56653 | 15823 ft | 157 kts | 18° |
| 2026-04-19 00:10 | 24.90675 | -81.56280 | 16218 ft | 156 kts | 17° |
| 2026-04-19 00:10 | 24.91715 | -81.55905 | 16558 ft | 160 kts | 17° |
| 2026-04-19 00:10 | 24.92808 | -81.55511 | 16778 ft | 171 kts | 18° |
| 2026-04-19 00:11 | 24.93960 | -81.55094 | 17045 ft | 177 kts | 18° |
| 2026-04-19 00:11 | 24.95145 | -81.54665 | 17354 ft | 180 kts | 18° |
| 2026-04-19 00:11 | 24.96342 | -81.54232 | 17695 ft | 182 kts | 18° |
| 2026-04-19 00:11 | 24.97549 | -81.53796 | 18037 ft | 183 kts | 18° |
| 2026-04-19 00:12 | 24.98757 | -81.53359 | 18370 ft | 183 kts | 17° |
| 2026-04-19 00:12 | 24.99972 | -81.52920 | 18662 ft | 184 kts | 17° |
| 2026-04-19 00:12 | 25.01175 | -81.52485 | 18953 ft | 184 kts | 17° |
| 2026-04-19 00:12 | 25.02411 | -81.52039 | 19251 ft | 185 kts | 17° |
| 2026-04-19 00:13 | 25.03620 | -81.51601 | 19547 ft | 185 kts | 17° |
| 2026-04-19 00:13 | 25.04849 | -81.51157 | 19842 ft | 185 kts | 17° |
| 2026-04-19 00:13 | 25.06074 | -81.50714 | 20136 ft | 185 kts | 17° |
| 2026-04-19 00:13 | 25.07302 | -81.50269 | 20430 ft | 185 kts | 16° |
| 2026-04-19 00:14 | 25.08529 | -81.49826 | 20721 ft | 185 kts | 16° |
| 2026-04-19 00:14 | 25.09755 | -81.49381 | 21009 ft | 186 kts | 15° |
| 2026-04-19 00:14 | 25.10970 | -81.48941 | 21290 ft | 186 kts | 15° |
| 2026-04-19 00:14 | 25.12198 | -81.48497 | 21585 ft | 186 kts | 15° |
| 2026-04-19 00:15 | 25.13442 | -81.48046 | 21804 ft | 190 kts | 15° |
| 2026-04-19 00:15 | 25.14705 | -81.47589 | 22044 ft | 192 kts | 15° |
| 2026-04-19 00:15 | 25.15980 | -81.47126 | 22292 ft | 193 kts | 15° |
| 2026-04-19 00:15 | 25.17262 | -81.46661 | 22544 ft | 194 kts | 15° |
| 2026-04-19 00:16 | 25.18552 | -81.46194 | 22798 ft | 195 kts | 15° |
| 2026-04-19 00:16 | 25.19842 | -81.45725 | 23052 ft | 196 kts | 14° |
| 2026-04-19 00:16 | 25.21139 | -81.45255 | 23308 ft | 196 kts | 14° |
| 2026-04-19 00:16 | 25.22435 | -81.44785 | 23559 ft | 196 kts | 14° |
| 2026-04-19 00:17 | 25.23727 | -81.44315 | 23772 ft | 195 kts | 14° |
| 2026-04-19 00:17 | 25.24999 | -81.43853 | 23964 ft | 195 kts | 14° |
| 2026-04-19 00:17 | 25.26302 | -81.43381 | 24098 ft | 198 kts | 14° |
| 2026-04-19 00:17 | 25.27619 | -81.42903 | 24249 ft | 200 kts | 14° |
| 2026-04-19 00:18 | 25.28946 | -81.42420 | 24405 ft | 201 kts | 14° |
| 2026-04-19 00:18 | 25.30276 | -81.41936 | 24565 ft | 202 kts | 13° |
| 2026-04-19 00:18 | 25.31610 | -81.41451 | 24727 ft | 202 kts | 13° |
| 2026-04-19 00:18 | 25.32945 | -81.40966 | 24889 ft | 202 kts | 13° |
| 2026-04-19 00:19 | 25.34282 | -81.40480 | 25052 ft | 202 kts | 13° |
| 2026-04-19 00:19 | 25.35616 | -81.39995 | 25214 ft | 202 kts | 13° |
| 2026-04-19 00:19 | 25.36953 | -81.39509 | 25375 ft | 202 kts | 13° |
| 2026-04-19 00:19 | 25.38287 | -81.39023 | 25537 ft | 201 kts | 13° |
| 2026-04-19 00:20 | 25.39618 | -81.38538 | 25701 ft | 201 kts | 12° |
| 2026-04-19 00:20 | 25.40933 | -81.38060 | 25855 ft | 201 kts | 12° |
| 2026-04-19 00:20 | 25.42281 | -81.37569 | 26005 ft | 202 kts | 12° |
| 2026-04-19 00:20 | 25.43629 | -81.37080 | 26014 ft | 209 kts | 12° |
| 2026-04-19 00:21 | 25.45031 | -81.36568 | 26024 ft | 215 kts | 12° |
| 2026-04-19 00:21 | 25.46470 | -81.36044 | 26024 ft | 220 kts | 12° |
| 2026-04-19 00:21 | 25.47959 | -81.35674 | 26021 ft | 218 kts | 357° |
| 2026-04-19 00:21 | 25.49458 | -81.35886 | 26023 ft | 219 kts | 339° |
| 2026-04-19 00:22 | 25.50826 | -81.36632 | 26024 ft | 222 kts | 327° |
| 2026-04-19 00:22 | 25.52153 | -81.37551 | 26029 ft | 228 kts | 327° |
| 2026-04-19 00:22 | 25.53519 | -81.38481 | 26024 ft | 233 kts | 327° |
| 2026-04-19 00:22 | 25.54905 | -81.39429 | 26027 ft | 236 kts | 327° |
| 2026-04-19 00:23 | 25.56312 | -81.40394 | 26023 ft | 239 kts | 327° |
| 2026-04-19 00:23 | 25.57734 | -81.41367 | 26024 ft | 241 kts | 327° |
| 2026-04-19 00:23 | 25.59171 | -81.42353 | 26021 ft | 243 kts | 327° |
| 2026-04-19 00:23 | 25.60616 | -81.43344 | 26023 ft | 245 kts | 327° |
| 2026-04-19 00:24 | 25.62047 | -81.44325 | 26023 ft | 246 kts | 327° |
| 2026-04-19 00:24 | 25.63505 | -81.45324 | 26022 ft | 247 kts | 327° |
| 2026-04-19 00:24 | 25.64970 | -81.46330 | 26022 ft | 248 kts | 327° |
| 2026-04-19 00:24 | 25.66439 | -81.47338 | 26024 ft | 248 kts | 327° |
| 2026-04-19 00:25 | 25.67910 | -81.48348 | 26023 ft | 249 kts | 327° |
| 2026-04-19 00:25 | 25.69380 | -81.49357 | 26023 ft | 248 kts | 327° |
| 2026-04-19 00:25 | 25.70848 | -81.50365 | 26019 ft | 249 kts | 327° |
| 2026-04-19 00:25 | 25.72320 | -81.51377 | 26022 ft | 248 kts | 327° |
| 2026-04-19 00:26 | 25.73791 | -81.52389 | 26020 ft | 248 kts | 327° |
| 2026-04-19 00:26 | 25.75262 | -81.53399 | 26019 ft | 247 kts | 327° |
| 2026-04-19 00:26 | 25.76700 | -81.54388 | 26020 ft | 246 kts | 327° |
| 2026-04-19 00:26 | 25.78151 | -81.55388 | 26018 ft | 245 kts | 327° |
| 2026-04-19 00:27 | 25.79602 | -81.56385 | 26018 ft | 245 kts | 327° |
| 2026-04-19 00:27 | 25.81048 | -81.57381 | 26018 ft | 245 kts | 327° |
| 2026-04-19 00:27 | 25.82500 | -81.58381 | 26018 ft | 245 kts | 327° |
| 2026-04-19 00:27 | 25.83952 | -81.59382 | 26018 ft | 245 kts | 327° |
| 2026-04-19 00:28 | 25.85402 | -81.60381 | 26019 ft | 246 kts | 327° |
| 2026-04-19 00:28 | 25.86855 | -81.61382 | 26019 ft | 246 kts | 327° |
| 2026-04-19 00:28 | 25.88299 | -81.62397 | 26019 ft | 245 kts | 323° |
| 2026-04-19 00:28 | 25.89573 | -81.63648 | 26021 ft | 245 kts | 316° |
| 2026-04-19 00:29 | 25.90825 | -81.64927 | 26022 ft | 245 kts | 317° |
| 2026-04-19 00:29 | 25.92088 | -81.66198 | 26018 ft | 245 kts | 317° |
| 2026-04-19 00:29 | 25.93348 | -81.67471 | 26018 ft | 245 kts | 317° |
| 2026-04-19 00:29 | 25.94591 | -81.68732 | 26019 ft | 245 kts | 317° |
| 2026-04-19 00:30 | 25.95868 | -81.70027 | 26019 ft | 245 kts | 317° |
| 2026-04-19 00:30 | 25.97115 | -81.71289 | 26019 ft | 246 kts | 317° |
| 2026-04-19 00:30 | 25.98375 | -81.72567 | 26020 ft | 246 kts | 317° |
| 2026-04-19 00:30 | 25.99637 | -81.73846 | 26020 ft | 246 kts | 317° |
| 2026-04-19 00:31 | 26.00901 | -81.75129 | 26020 ft | 246 kts | 317° |
| 2026-04-19 00:31 | 26.02166 | -81.76412 | 26011 ft | 246 kts | 317° |
| 2026-04-19 00:31 | 26.03430 | -81.77695 | 26017 ft | 246 kts | 317° |
| 2026-04-19 00:31 | 26.04694 | -81.78978 | 26017 ft | 246 kts | 317° |
| 2026-04-19 00:32 | 26.05957 | -81.80261 | 26018 ft | 246 kts | 317° |
| 2026-04-19 00:32 | 26.07221 | -81.81544 | 26017 ft | 246 kts | 316° |
| 2026-04-19 00:32 | 26.08482 | -81.82826 | 26018 ft | 246 kts | 316° |
| 2026-04-19 00:32 | 26.09730 | -81.84094 | 26018 ft | 246 kts | 316° |
| 2026-04-19 00:33 | 26.10997 | -81.85383 | 26018 ft | 246 kts | 316° |
| 2026-04-19 00:33 | 26.12260 | -81.86667 | 26018 ft | 246 kts | 316° |
| 2026-04-19 00:33 | 26.13521 | -81.87951 | 26018 ft | 246 kts | 316° |
| 2026-04-19 00:33 | 26.14788 | -81.89240 | 26018 ft | 246 kts | 316° |
| 2026-04-19 00:34 | 26.17298 | -81.91796 | 26017 ft | 246 kts | 316° |
| 2026-04-19 00:34 | 26.18563 | -81.93083 | 26017 ft | 246 kts | 316° |
| 2026-04-19 00:34 | 26.19826 | -81.94371 | 26017 ft | 246 kts | 316° |
| 2026-04-19 00:35 | 26.21087 | -81.95656 | 26019 ft | 246 kts | 316° |
| 2026-04-19 00:35 | 26.22349 | -81.96943 | 26019 ft | 246 kts | 316° |
| 2026-04-19 00:35 | 26.23612 | -81.98231 | 26019 ft | 246 kts | 316° |
| 2026-04-19 00:35 | 26.24875 | -81.99520 | 26018 ft | 246 kts | 316° |
| 2026-04-19 00:36 | 26.26140 | -82.00810 | 26019 ft | 246 kts | 316° |
| 2026-04-19 00:36 | 26.27402 | -82.02099 | 26019 ft | 246 kts | 316° |
| 2026-04-19 00:36 | 26.28664 | -82.03387 | 26020 ft | 246 kts | 316° |
| 2026-04-19 00:36 | 26.29909 | -82.04659 | 26019 ft | 246 kts | 316° |
| 2026-04-19 00:37 | 26.31171 | -82.05950 | 26018 ft | 246 kts | 316° |
| 2026-04-19 00:37 | 26.32436 | -82.07242 | 26018 ft | 246 kts | 316° |
| 2026-04-19 00:37 | 26.33703 | -82.08537 | 26017 ft | 246 kts | 316° |
| 2026-04-19 00:37 | 26.34965 | -82.09827 | 26020 ft | 246 kts | 316° |
| 2026-04-19 00:38 | 26.36228 | -82.11120 | 26018 ft | 246 kts | 316° |
| 2026-04-19 00:38 | 26.37474 | -82.12395 | 26018 ft | 246 kts | 316° |
| 2026-04-19 00:38 | 26.38736 | -82.13687 | 26018 ft | 246 kts | 316° |
| 2026-04-19 00:38 | 26.40003 | -82.14984 | 26018 ft | 246 kts | 316° |
| 2026-04-19 00:39 | 26.41266 | -82.16279 | 26018 ft | 246 kts | 316° |
| 2026-04-19 00:39 | 26.42527 | -82.17570 | 26018 ft | 246 kts | 316° |
| 2026-04-19 00:39 | 26.43789 | -82.18864 | 26018 ft | 246 kts | 316° |
| 2026-04-19 00:39 | 26.45038 | -82.20145 | 26019 ft | 246 kts | 316° |
| 2026-04-19 00:40 | 26.46300 | -82.21439 | 26016 ft | 246 kts | 316° |
| 2026-04-19 00:40 | 26.47562 | -82.22734 | 26017 ft | 246 kts | 316° |
| 2026-04-19 00:40 | 26.48824 | -82.24028 | 26017 ft | 246 kts | 316° |
| 2026-04-19 00:40 | 26.50084 | -82.25322 | 26017 ft | 246 kts | 316° |
| 2026-04-19 00:41 | 26.51346 | -82.26619 | 26016 ft | 246 kts | 316° |
| 2026-04-19 00:41 | 26.52607 | -82.27914 | 26016 ft | 246 kts | 316° |
| 2026-04-19 00:41 | 26.53869 | -82.29210 | 26016 ft | 246 kts | 316° |
| 2026-04-19 00:41 | 26.55133 | -82.30510 | 26016 ft | 246 kts | 316° |
| 2026-04-19 00:42 | 26.56393 | -82.31805 | 26016 ft | 246 kts | 316° |
| 2026-04-19 00:42 | 26.57656 | -82.33104 | 26016 ft | 246 kts | 316° |
| 2026-04-19 00:42 | 26.58918 | -82.34402 | 26016 ft | 246 kts | 316° |
| 2026-04-19 00:42 | 26.60164 | -82.35684 | 26016 ft | 246 kts | 316° |
| 2026-04-19 00:43 | 26.61424 | -82.36982 | 26016 ft | 246 kts | 316° |
| 2026-04-19 00:43 | 26.62685 | -82.38281 | 26016 ft | 246 kts | 316° |
| 2026-04-19 00:43 | 26.63948 | -82.39581 | 26019 ft | 246 kts | 316° |
| 2026-04-19 00:43 | 26.65209 | -82.40881 | 26018 ft | 247 kts | 316° |
| 2026-04-19 00:44 | 26.66470 | -82.42181 | 26018 ft | 247 kts | 316° |
| 2026-04-19 00:44 | 26.67732 | -82.43482 | 26024 ft | 247 kts | 316° |
| 2026-04-19 00:44 | 26.68995 | -82.44785 | 26024 ft | 247 kts | 316° |
| 2026-04-19 00:44 | 26.70258 | -82.46088 | 26025 ft | 247 kts | 316° |
| 2026-04-19 00:45 | 26.71521 | -82.47391 | 26022 ft | 247 kts | 316° |
| 2026-04-19 00:45 | 26.72786 | -82.48696 | 26023 ft | 247 kts | 316° |
| 2026-04-19 00:45 | 26.74049 | -82.50001 | 26023 ft | 247 kts | 316° |
| 2026-04-19 00:45 | 26.75312 | -82.51305 | 26022 ft | 247 kts | 316° |
| 2026-04-19 00:46 | 26.76575 | -82.52611 | 26021 ft | 247 kts | 316° |
| 2026-04-19 00:46 | 26.77822 | -82.53901 | 26021 ft | 247 kts | 316° |
| 2026-04-19 00:46 | 26.79085 | -82.55206 | 26021 ft | 247 kts | 316° |
| 2026-04-19 00:46 | 26.80350 | -82.56515 | 26030 ft | 247 kts | 316° |
| 2026-04-19 00:47 | 26.81613 | -82.57821 | 26030 ft | 247 kts | 316° |
| 2026-04-19 00:47 | 26.82879 | -82.59131 | 26030 ft | 247 kts | 316° |
| 2026-04-19 00:47 | 26.84143 | -82.60440 | 26030 ft | 247 kts | 316° |
| 2026-04-19 00:47 | 26.85405 | -82.61748 | 26030 ft | 247 kts | 316° |
| 2026-04-19 00:48 | 26.86669 | -82.63057 | 26030 ft | 247 kts | 316° |
| 2026-04-19 00:48 | 26.87934 | -82.64368 | 26030 ft | 247 kts | 316° |
| 2026-04-19 00:48 | 26.89198 | -82.65677 | 26030 ft | 247 kts | 316° |
| 2026-04-19 00:48 | 26.90445 | -82.66972 | 26030 ft | 247 kts | 316° |
| 2026-04-19 00:49 | 26.91710 | -82.68283 | 26030 ft | 248 kts | 315° |
| 2026-04-19 00:49 | 26.92973 | -82.69594 | 26031 ft | 248 kts | 316° |
| 2026-04-19 00:49 | 26.94239 | -82.70908 | 26036 ft | 248 kts | 315° |
| 2026-04-19 00:49 | 26.95506 | -82.72223 | 26036 ft | 248 kts | 316° |
| 2026-04-19 00:50 | 26.96768 | -82.73535 | 26036 ft | 248 kts | 315° |
| 2026-04-19 00:50 | 26.98033 | -82.74848 | 26036 ft | 248 kts | 315° |
| 2026-04-19 00:50 | 26.99297 | -82.76162 | 26033 ft | 248 kts | 315° |
| 2026-04-19 00:50 | 27.00563 | -82.77478 | 26034 ft | 248 kts | 315° |
| 2026-04-19 00:51 | 27.01828 | -82.78793 | 26031 ft | 248 kts | 315° |
| 2026-04-19 00:51 | 27.03093 | -82.80110 | 26031 ft | 248 kts | 315° |
| 2026-04-19 00:51 | 27.04356 | -82.81424 | 26030 ft | 248 kts | 315° |
| 2026-04-19 00:51 | 27.05607 | -82.82727 | 26033 ft | 248 kts | 315° |
| 2026-04-19 00:52 | 27.06869 | -82.84040 | 26031 ft | 248 kts | 315° |
| 2026-04-19 00:52 | 27.08132 | -82.85356 | 26031 ft | 248 kts | 315° |
| 2026-04-19 00:52 | 27.09403 | -82.86681 | 26033 ft | 248 kts | 315° |
| 2026-04-19 00:52 | 27.10661 | -82.87992 | 26033 ft | 248 kts | 315° |
| 2026-04-19 00:53 | 27.11930 | -82.89315 | 26033 ft | 248 kts | 315° |
| 2026-04-19 00:53 | 27.13192 | -82.90631 | 26033 ft | 248 kts | 315° |
| 2026-04-19 00:53 | 27.14451 | -82.91946 | 26033 ft | 248 kts | 315° |
| 2026-04-19 00:53 | 27.15723 | -82.93272 | 26033 ft | 248 kts | 315° |
| 2026-04-19 00:54 | 27.16986 | -82.94591 | 26035 ft | 248 kts | 315° |
| 2026-04-19 00:54 | 27.18249 | -82.95910 | 26037 ft | 248 kts | 315° |
| 2026-04-19 00:54 | 27.19505 | -82.97222 | 26037 ft | 248 kts | 315° |
| 2026-04-19 00:54 | 27.20767 | -82.98542 | 26037 ft | 248 kts | 315° |
| 2026-04-19 00:55 | 27.22031 | -82.99863 | 26038 ft | 248 kts | 315° |
| 2026-04-19 00:55 | 27.23289 | -83.01178 | 26046 ft | 248 kts | 315° |
| 2026-04-19 00:55 | 27.24556 | -83.02503 | 26046 ft | 248 kts | 315° |
| 2026-04-19 00:55 | 27.25810 | -83.03815 | 26046 ft | 248 kts | 315° |
| 2026-04-19 00:56 | 27.27071 | -83.05135 | 26045 ft | 248 kts | 315° |
| 2026-04-19 00:56 | 27.28341 | -83.06466 | 26045 ft | 248 kts | 315° |
| 2026-04-19 00:56 | 27.29601 | -83.07784 | 26045 ft | 248 kts | 315° |
| 2026-04-19 00:56 | 27.30858 | -83.09101 | 26048 ft | 248 kts | 315° |
| 2026-04-19 00:57 | 27.32115 | -83.10419 | 26046 ft | 248 kts | 314° |
| 2026-04-19 00:57 | 27.33375 | -83.11740 | 26046 ft | 248 kts | 314° |
| 2026-04-19 00:57 | 27.34641 | -83.13068 | 26046 ft | 248 kts | 314° |
| 2026-04-19 00:57 | 27.35904 | -83.14393 | 26046 ft | 248 kts | 314° |
| 2026-04-19 00:58 | 27.37168 | -83.15719 | 26047 ft | 248 kts | 314° |
| 2026-04-19 00:58 | 27.38426 | -83.17039 | 26046 ft | 248 kts | 314° |
| 2026-04-19 00:58 | 27.39685 | -83.18363 | 26046 ft | 248 kts | 314° |
| 2026-04-19 00:58 | 27.40961 | -83.19703 | 26046 ft | 248 kts | 314° |
| 2026-04-19 00:59 | 27.42214 | -83.21020 | 26046 ft | 248 kts | 314° |
| 2026-04-19 00:59 | 27.43472 | -83.22343 | 26049 ft | 248 kts | 314° |
| 2026-04-19 00:59 | 27.44737 | -83.23672 | 26049 ft | 248 kts | 314° |
| 2026-04-19 00:59 | 27.45995 | -83.24995 | 26049 ft | 248 kts | 314° |
| 2026-04-19 01:00 | 27.47259 | -83.26321 | 26049 ft | 248 kts | 314° |
| 2026-04-19 01:00 | 27.48517 | -83.27645 | 26049 ft | 248 kts | 314° |
| 2026-04-19 01:00 | 27.49774 | -83.28973 | 26049 ft | 248 kts | 314° |
| 2026-04-19 01:00 | 27.51036 | -83.30303 | 26049 ft | 248 kts | 314° |
| 2026-04-19 01:01 | 27.51873 | -83.31184 | 26049 ft | 248 kts | 314° |
| 2026-04-19 01:01 | 27.53135 | -83.32514 | 26049 ft | 248 kts | 314° |
| 2026-04-19 01:01 | 27.54396 | -83.33843 | 26049 ft | 248 kts | 314° |
| 2026-04-19 01:01 | 27.55654 | -83.35170 | 26049 ft | 248 kts | 314° |
| 2026-04-19 01:02 | 27.56915 | -83.36500 | 26049 ft | 248 kts | 314° |
| 2026-04-19 01:02 | 27.58177 | -83.37832 | 26050 ft | 248 kts | 314° |
| 2026-04-19 01:02 | 27.59445 | -83.39170 | 26050 ft | 248 kts | 314° |
| 2026-04-19 01:02 | 27.60692 | -83.40487 | 26050 ft | 248 kts | 314° |
| 2026-04-19 01:03 | 27.61951 | -83.41816 | 26052 ft | 248 kts | 314° |
| 2026-04-19 01:03 | 27.63223 | -83.43160 | 26052 ft | 248 kts | 314° |
| 2026-04-19 01:03 | 27.64469 | -83.44478 | 26052 ft | 248 kts | 314° |
| 2026-04-19 01:03 | 27.65735 | -83.45816 | 26053 ft | 248 kts | 314° |
| 2026-04-19 01:04 | 27.66993 | -83.47146 | 26051 ft | 248 kts | 314° |
| 2026-04-19 01:04 | 27.68253 | -83.48480 | 26051 ft | 248 kts | 314° |
| 2026-04-19 01:04 | 27.69512 | -83.49812 | 26051 ft | 248 kts | 314° |
| 2026-04-19 01:04 | 27.70772 | -83.51146 | 26051 ft | 248 kts | 314° |
| 2026-04-19 01:05 | 27.72029 | -83.52478 | 26052 ft | 248 kts | 314° |
| 2026-04-19 01:05 | 27.73290 | -83.53810 | 26049 ft | 249 kts | 314° |
| 2026-04-19 01:05 | 27.74552 | -83.55145 | 26049 ft | 249 kts | 314° |
| 2026-04-19 01:05 | 27.75807 | -83.56482 | 26049 ft | 249 kts | 314° |
| 2026-04-19 01:06 | 27.77071 | -83.57823 | 26049 ft | 249 kts | 314° |
| 2026-04-19 01:06 | 27.78335 | -83.59163 | 26049 ft | 249 kts | 314° |
| 2026-04-19 01:06 | 27.79588 | -83.60492 | 26049 ft | 249 kts | 314° |
| 2026-04-19 01:06 | 27.80850 | -83.61832 | 26049 ft | 249 kts | 314° |
| 2026-04-19 01:07 | 27.82115 | -83.63175 | 26049 ft | 249 kts | 314° |
| 2026-04-19 01:07 | 27.83373 | -83.64512 | 26049 ft | 249 kts | 314° |
| 2026-04-19 01:07 | 27.84651 | -83.65870 | 26049 ft | 249 kts | 314° |
| 2026-04-19 01:07 | 27.85915 | -83.67213 | 26049 ft | 249 kts | 314° |
| 2026-04-19 01:08 | 27.87174 | -83.68553 | 26053 ft | 249 kts | 314° |
| 2026-04-19 01:08 | 27.88432 | -83.69890 | 26054 ft | 249 kts | 314° |
| 2026-04-19 01:08 | 27.89690 | -83.71229 | 26054 ft | 249 kts | 314° |
| 2026-04-19 01:08 | 27.90951 | -83.72571 | 26054 ft | 249 kts | 314° |
| 2026-04-19 01:09 | 27.92222 | -83.73924 | 26058 ft | 249 kts | 314° |
| 2026-04-19 01:09 | 27.93468 | -83.75251 | 26056 ft | 250 kts | 313° |
| 2026-04-19 01:09 | 27.94732 | -83.76598 | 26057 ft | 249 kts | 313° |
| 2026-04-19 01:09 | 27.95993 | -83.77942 | 26057 ft | 249 kts | 313° |
| 2026-04-19 01:10 | 27.97271 | -83.79305 | 26058 ft | 249 kts | 313° |
| 2026-04-19 01:10 | 27.98526 | -83.80643 | 26058 ft | 249 kts | 313° |
| 2026-04-19 01:10 | 27.99777 | -83.81978 | 26058 ft | 249 kts | 313° |
| 2026-04-19 01:10 | 28.01040 | -83.83325 | 26058 ft | 249 kts | 313° |
| 2026-04-19 01:11 | 28.02302 | -83.84673 | 26057 ft | 249 kts | 313° |
| 2026-04-19 01:11 | 28.03557 | -83.86014 | 26057 ft | 249 kts | 313° |
| 2026-04-19 01:11 | 28.04831 | -83.87375 | 26057 ft | 249 kts | 313° |
| 2026-04-19 01:11 | 28.06088 | -83.88719 | 26057 ft | 249 kts | 313° |
| 2026-04-19 01:12 | 28.07347 | -83.90064 | 26054 ft | 249 kts | 313° |
| 2026-04-19 01:12 | 28.08603 | -83.91407 | 26056 ft | 249 kts | 313° |
| 2026-04-19 01:12 | 28.09870 | -83.92757 | 26053 ft | 249 kts | 312° |
| 2026-04-19 01:12 | 28.11120 | -83.94100 | 26053 ft | 249 kts | 312° |
| 2026-04-19 01:13 | 28.12387 | -83.95458 | 26056 ft | 249 kts | 313° |
| 2026-04-19 01:13 | 28.13646 | -83.96805 | 26056 ft | 249 kts | 313° |
| 2026-04-19 01:13 | 28.14908 | -83.98157 | 26056 ft | 249 kts | 313° |
| 2026-04-19 01:13 | 28.16158 | -83.99497 | 26056 ft | 249 kts | 313° |
| 2026-04-19 01:14 | 28.17433 | -84.00864 | 26055 ft | 249 kts | 313° |
| 2026-04-19 01:14 | 28.18692 | -84.02214 | 26057 ft | 249 kts | 313° |
| 2026-04-19 01:14 | 28.19945 | -84.03557 | 26057 ft | 249 kts | 313° |
| 2026-04-19 01:14 | 28.21200 | -84.04904 | 26057 ft | 250 kts | 312° |
| 2026-04-19 01:15 | 28.22464 | -84.06261 | 26057 ft | 250 kts | 312° |
| 2026-04-19 01:15 | 28.23728 | -84.07618 | 26057 ft | 250 kts | 312° |
| 2026-04-19 01:15 | 28.24989 | -84.08973 | 26058 ft | 250 kts | 312° |
| 2026-04-19 01:15 | 28.26249 | -84.10328 | 26059 ft | 250 kts | 312° |
| 2026-04-19 01:16 | 28.27516 | -84.11689 | 26059 ft | 250 kts | 312° |
| 2026-04-19 01:16 | 28.28775 | -84.13044 | 26059 ft | 250 kts | 312° |
| 2026-04-19 01:16 | 28.30035 | -84.14398 | 26059 ft | 250 kts | 312° |
| 2026-04-19 01:16 | 28.31292 | -84.15751 | 26059 ft | 250 kts | 312° |
| 2026-04-19 01:17 | 28.32550 | -84.17105 | 26061 ft | 250 kts | 312° |
| 2026-04-19 01:17 | 28.33807 | -84.18458 | 26061 ft | 250 kts | 312° |
| 2026-04-19 01:17 | 28.35069 | -84.19817 | 26060 ft | 250 kts | 312° |
| 2026-04-19 01:17 | 28.36327 | -84.21173 | 26060 ft | 250 kts | 312° |
| 2026-04-19 01:18 | 28.37582 | -84.22526 | 26058 ft | 250 kts | 312° |
| 2026-04-19 01:18 | 28.38845 | -84.23888 | 26058 ft | 250 kts | 312° |
| 2026-04-19 01:18 | 28.40105 | -84.25247 | 26059 ft | 250 kts | 312° |
| 2026-04-19 01:18 | 28.41357 | -84.26597 | 26059 ft | 250 kts | 312° |
| 2026-04-19 01:19 | 28.42614 | -84.27955 | 26059 ft | 250 kts | 312° |
| 2026-04-19 01:19 | 28.43874 | -84.29313 | 26060 ft | 250 kts | 311° |
| 2026-04-19 01:19 | 28.45138 | -84.30676 | 26059 ft | 250 kts | 311° |
| 2026-04-19 01:19 | 28.46381 | -84.32023 | 26059 ft | 250 kts | 311° |
| 2026-04-19 01:20 | 28.47639 | -84.33384 | 26058 ft | 250 kts | 311° |
| 2026-04-19 01:20 | 28.48902 | -84.34748 | 26056 ft | 250 kts | 311° |
| 2026-04-19 01:20 | 28.50160 | -84.36109 | 26056 ft | 250 kts | 311° |
| 2026-04-19 01:20 | 28.51419 | -84.37471 | 26058 ft | 250 kts | 311° |
| 2026-04-19 01:21 | 28.52677 | -84.38834 | 26058 ft | 250 kts | 311° |
| 2026-04-19 01:21 | 28.53935 | -84.40195 | 26057 ft | 250 kts | 311° |
| 2026-04-19 01:21 | 28.55194 | -84.41559 | 26068 ft | 250 kts | 311° |
| 2026-04-19 01:21 | 28.56456 | -84.42926 | 26059 ft | 250 kts | 311° |
| 2026-04-19 01:22 | 28.57715 | -84.44291 | 26059 ft | 250 kts | 311° |
| 2026-04-19 01:22 | 28.58973 | -84.45655 | 26059 ft | 250 kts | 311° |
| 2026-04-19 01:22 | 28.60231 | -84.47019 | 26059 ft | 250 kts | 311° |
| 2026-04-19 01:22 | 28.61471 | -84.48365 | 26059 ft | 250 kts | 311° |
| 2026-04-19 01:23 | 28.62728 | -84.49729 | 26059 ft | 250 kts | 311° |
| 2026-04-19 01:23 | 28.63985 | -84.51094 | 26059 ft | 250 kts | 311° |
| 2026-04-19 01:23 | 28.65244 | -84.52461 | 26059 ft | 249 kts | 311° |
| 2026-04-19 01:23 | 28.66501 | -84.53827 | 26059 ft | 249 kts | 311° |
| 2026-04-19 01:24 | 28.67756 | -84.55191 | 26060 ft | 249 kts | 311° |
| 2026-04-19 01:24 | 28.69011 | -84.56555 | 26060 ft | 249 kts | 311° |
| 2026-04-19 01:24 | 28.70266 | -84.57920 | 26060 ft | 249 kts | 311° |
| 2026-04-19 01:24 | 28.71522 | -84.59287 | 26060 ft | 249 kts | 311° |
| 2026-04-19 01:25 | 28.72777 | -84.60654 | 26058 ft | 249 kts | 311° |
| 2026-04-19 01:25 | 28.74032 | -84.62019 | 26058 ft | 249 kts | 311° |
| 2026-04-19 01:25 | 28.75287 | -84.63386 | 26058 ft | 249 kts | 311° |
| 2026-04-19 01:25 | 28.76542 | -84.64753 | 26059 ft | 249 kts | 311° |
| 2026-04-19 01:26 | 28.77796 | -84.66121 | 26058 ft | 249 kts | 311° |
| 2026-04-19 01:26 | 28.79055 | -84.67484 | 26061 ft | 250 kts | 310° |
| 2026-04-19 01:26 | 28.80309 | -84.68853 | 26061 ft | 250 kts | 310° |
| 2026-04-19 01:26 | 28.81548 | -84.70214 | 26061 ft | 250 kts | 310° |
| 2026-04-19 01:27 | 28.82803 | -84.71584 | 26059 ft | 250 kts | 310° |
| 2026-04-19 01:27 | 28.84061 | -84.72957 | 26059 ft | 250 kts | 310° |
| 2026-04-19 01:27 | 28.85314 | -84.74325 | 26059 ft | 250 kts | 310° |
| 2026-04-19 01:27 | 28.86571 | -84.75698 | 26058 ft | 250 kts | 310° |
| 2026-04-19 01:28 | 28.87830 | -84.77074 | 26062 ft | 250 kts | 310° |
| 2026-04-19 01:28 | 28.89085 | -84.78447 | 26060 ft | 250 kts | 310° |
| 2026-04-19 01:28 | 28.90320 | -84.79839 | 26060 ft | 249 kts | 309° |
| 2026-04-19 01:28 | 28.91554 | -84.81235 | 26060 ft | 249 kts | 309° |
| 2026-04-19 01:29 | 28.92780 | -84.82607 | 26061 ft | 249 kts | 309° |
| 2026-04-19 01:29 | 28.94019 | -84.83993 | 26061 ft | 249 kts | 309° |
| 2026-04-19 01:29 | 28.95257 | -84.85379 | 26064 ft | 249 kts | 309° |
| 2026-04-19 01:29 | 28.96496 | -84.86767 | 26061 ft | 249 kts | 309° |
| 2026-04-19 01:30 | 28.97733 | -84.88154 | 26063 ft | 249 kts | 309° |
| 2026-04-19 01:30 | 28.98971 | -84.89542 | 26066 ft | 249 kts | 309° |
| 2026-04-19 01:30 | 29.00208 | -84.90930 | 26063 ft | 249 kts | 309° |
| 2026-04-19 01:30 | 29.01445 | -84.92319 | 26065 ft | 249 kts | 309° |
| 2026-04-19 01:31 | 29.02682 | -84.93707 | 26060 ft | 249 kts | 309° |
| 2026-04-19 01:31 | 29.03921 | -84.95098 | 26058 ft | 249 kts | 309° |
| 2026-04-19 01:31 | 29.05161 | -84.96491 | 26057 ft | 249 kts | 309° |
| 2026-04-19 01:31 | 29.06382 | -84.97863 | 26058 ft | 249 kts | 309° |
| 2026-04-19 01:32 | 29.07617 | -84.99252 | 26056 ft | 249 kts | 309° |
| 2026-04-19 01:32 | 29.08855 | -85.00644 | 26057 ft | 249 kts | 309° |
| 2026-04-19 01:32 | 29.10090 | -85.02034 | 26058 ft | 249 kts | 309° |
| 2026-04-19 01:32 | 29.11327 | -85.03425 | 26056 ft | 249 kts | 309° |
| 2026-04-19 01:33 | 29.12568 | -85.04823 | 26056 ft | 249 kts | 309° |
| 2026-04-19 01:33 | 29.13805 | -85.06216 | 26055 ft | 250 kts | 309° |
| 2026-04-19 01:33 | 29.15043 | -85.07610 | 26054 ft | 250 kts | 309° |
| 2026-04-19 01:33 | 29.16265 | -85.08988 | 26065 ft | 250 kts | 309° |
| 2026-04-19 01:34 | 29.17506 | -85.10389 | 26057 ft | 250 kts | 309° |
| 2026-04-19 01:34 | 29.18747 | -85.11787 | 26059 ft | 250 kts | 309° |
| 2026-04-19 01:34 | 29.19987 | -85.13185 | 26059 ft | 250 kts | 309° |
| 2026-04-19 01:34 | 29.21229 | -85.14587 | 26061 ft | 250 kts | 309° |
| 2026-04-19 01:35 | 29.22468 | -85.15985 | 26058 ft | 250 kts | 309° |
| 2026-04-19 01:35 | 29.23708 | -85.17387 | 26056 ft | 250 kts | 309° |
| 2026-04-19 01:35 | 29.24947 | -85.18786 | 26058 ft | 250 kts | 309° |
| 2026-04-19 01:35 | 29.26189 | -85.20190 | 26056 ft | 250 kts | 309° |
| 2026-04-19 01:36 | 29.27411 | -85.21572 | 26056 ft | 250 kts | 309° |
| 2026-04-19 01:36 | 29.28652 | -85.22975 | 26056 ft | 250 kts | 309° |
| 2026-04-19 01:36 | 29.29892 | -85.24378 | 26056 ft | 250 kts | 309° |
| 2026-04-19 01:36 | 29.31132 | -85.25782 | 26056 ft | 250 kts | 309° |
| 2026-04-19 01:37 | 29.32369 | -85.27182 | 26058 ft | 250 kts | 309° |
| 2026-04-19 01:37 | 29.33608 | -85.28586 | 26063 ft | 250 kts | 309° |
| 2026-04-19 01:37 | 29.34845 | -85.29988 | 26065 ft | 250 kts | 309° |
| 2026-04-19 01:37 | 29.36084 | -85.31391 | 26065 ft | 250 kts | 309° |
| 2026-04-19 01:38 | 29.37321 | -85.32795 | 26063 ft | 250 kts | 309° |
| 2026-04-19 01:38 | 29.38559 | -85.34198 | 26066 ft | 250 kts | 309° |
| 2026-04-19 01:38 | 29.39797 | -85.35604 | 26067 ft | 250 kts | 309° |
| 2026-04-19 01:38 | 29.41033 | -85.37007 | 26062 ft | 250 kts | 309° |
| 2026-04-19 01:39 | 29.42273 | -85.38415 | 26068 ft | 250 kts | 309° |
| 2026-04-19 01:39 | 29.43525 | -85.39803 | 26065 ft | 253 kts | 314° |
| 2026-04-19 01:39 | 29.44846 | -85.41121 | 25993 ft | 252 kts | 307° |
| 2026-04-19 01:39 | 29.46017 | -85.42601 | 25790 ft | 255 kts | 306° |
| 2026-04-19 01:40 | 29.47245 | -85.44113 | 25573 ft | 262 kts | 308° |
| 2026-04-19 01:40 | 29.48559 | -85.45585 | 25377 ft | 266 kts | 310° |
| 2026-04-19 01:40 | 29.49891 | -85.47067 | 25188 ft | 267 kts | 309° |
| 2026-04-19 01:40 | 29.51215 | -85.48574 | 25003 ft | 268 kts | 309° |
| 2026-04-19 01:41 | 29.52535 | -85.50086 | 24809 ft | 269 kts | 309° |
| 2026-04-19 01:41 | 29.53862 | -85.51599 | 24589 ft | 270 kts | 309° |
| 2026-04-19 01:41 | 29.55207 | -85.53132 | 24214 ft | 274 kts | 309° |
| 2026-04-19 01:41 | 29.56553 | -85.54662 | 23819 ft | 270 kts | 310° |
| 2026-04-19 01:42 | 29.57856 | -85.56149 | 23392 ft | 266 kts | 310° |
| 2026-04-19 01:42 | 29.59183 | -85.57664 | 22919 ft | 264 kts | 310° |
| 2026-04-19 01:42 | 29.61747 | -85.60592 | 22017 ft | 260 kts | 310° |
| 2026-04-19 01:43 | 29.63027 | -85.62055 | 21580 ft | 258 kts | 310° |
| 2026-04-19 01:43 | 29.64300 | -85.63509 | 21148 ft | 257 kts | 310° |
| 2026-04-19 01:43 | 29.65562 | -85.64953 | 20734 ft | 255 kts | 310° |
| 2026-04-19 01:43 | 29.66821 | -85.66393 | 20330 ft | 254 kts | 310° |
| 2026-04-19 01:44 | 29.68068 | -85.67821 | 19934 ft | 253 kts | 311° |
| 2026-04-19 01:44 | 29.69319 | -85.69252 | 19543 ft | 253 kts | 311° |
| 2026-04-19 01:44 | 29.70563 | -85.70676 | 19159 ft | 252 kts | 311° |
| 2026-04-19 01:44 | 29.71788 | -85.72079 | 18793 ft | 251 kts | 311° |
| 2026-04-19 01:45 | 29.73022 | -85.73493 | 18446 ft | 250 kts | 311° |
| 2026-04-19 01:45 | 29.74254 | -85.74906 | 18037 ft | 250 kts | 311° |
| 2026-04-19 01:45 | 29.75487 | -85.76319 | 17626 ft | 249 kts | 311° |
| 2026-04-19 01:45 | 29.76711 | -85.77724 | 17228 ft | 248 kts | 311° |
| 2026-04-19 01:46 | 29.77933 | -85.79126 | 16832 ft | 248 kts | 312° |
| 2026-04-19 01:46 | 29.79156 | -85.80530 | 16441 ft | 248 kts | 312° |
| 2026-04-19 01:46 | 29.80380 | -85.81936 | 16063 ft | 248 kts | 312° |
| 2026-04-19 01:46 | 29.81595 | -85.83329 | 15688 ft | 245 kts | 312° |
| 2026-04-19 01:47 | 29.82793 | -85.84708 | 15319 ft | 242 kts | 312° |
| 2026-04-19 01:47 | 29.83980 | -85.86073 | 14951 ft | 240 kts | 312° |
| 2026-04-19 01:47 | 29.85161 | -85.87432 | 14594 ft | 239 kts | 312° |
| 2026-04-19 01:47 | 29.86340 | -85.88788 | 14262 ft | 239 kts | 312° |
| 2026-04-19 01:48 | 29.87501 | -85.90124 | 13921 ft | 239 kts | 312° |
| 2026-04-19 01:48 | 29.88676 | -85.91477 | 13539 ft | 238 kts | 312° |
| 2026-04-19 01:48 | 29.89852 | -85.92831 | 13157 ft | 238 kts | 312° |
| 2026-04-19 01:48 | 29.91022 | -85.94180 | 12785 ft | 238 kts | 312° |
| 2026-04-19 01:49 | 29.92192 | -85.95528 | 12421 ft | 238 kts | 312° |
| 2026-04-19 01:49 | 29.93361 | -85.96876 | 12061 ft | 238 kts | 312° |
| 2026-04-19 01:49 | 29.94530 | -85.98225 | 11707 ft | 238 kts | 312° |
| 2026-04-19 01:49 | 29.95701 | -85.99575 | 11363 ft | 238 kts | 312° |
| 2026-04-19 01:50 | 29.96854 | -86.00907 | 11026 ft | 238 kts | 312° |
| 2026-04-19 01:50 | 29.98024 | -86.02256 | 10694 ft | 238 kts | 312° |
| 2026-04-19 01:50 | 29.99167 | -86.03575 | 10355 ft | 226 kts | 312° |
| 2026-04-19 01:50 | 30.00284 | -86.04868 | 10023 ft | 231 kts | 312° |
| 2026-04-19 01:51 | 30.01438 | -86.06202 | 9677 ft | 237 kts | 312° |
| 2026-04-19 01:51 | 30.02598 | -86.07542 | 9182 ft | 229 kts | 313° |
| 2026-04-19 01:51 | 30.03696 | -86.08811 | 8679 ft | 219 kts | 313° |
| 2026-04-19 01:51 | 30.04757 | -86.10039 | 8194 ft | 214 kts | 313° |
| 2026-04-19 01:52 | 30.05798 | -86.11246 | 7724 ft | 210 kts | 313° |
| 2026-04-19 01:52 | 30.06812 | -86.12420 | 7266 ft | 207 kts | 313° |
| 2026-04-19 01:52 | 30.07823 | -86.13590 | 6812 ft | 205 kts | 313° |
| 2026-04-19 01:52 | 30.08823 | -86.14749 | 6361 ft | 202 kts | 314° |
| 2026-04-19 01:53 | 30.09810 | -86.15894 | 5891 ft | 200 kts | 314° |
| 2026-04-19 01:53 | 30.10789 | -86.17029 | 5429 ft | 198 kts | 315° |
| 2026-04-19 01:53 | 30.11758 | -86.18153 | 5025 ft | 200 kts | 316° |
| 2026-04-19 01:53 | 30.12754 | -86.19306 | 4777 ft | 204 kts | 317° |
| 2026-04-19 01:54 | 30.13759 | -86.20468 | 4551 ft | 205 kts | 317° |
| 2026-04-19 01:54 | 30.14754 | -86.21624 | 4334 ft | 205 kts | 317° |
| 2026-04-19 01:54 | 30.15762 | -86.22794 | 4112 ft | 205 kts | 317° |
| 2026-04-19 01:54 | 30.16765 | -86.23961 | 3891 ft | 204 kts | 317° |
| 2026-04-19 01:55 | 30.17765 | -86.25118 | 3672 ft | 204 kts | 317° |
| 2026-04-19 01:55 | 30.18427 | -86.25887 | 3526 ft | 204 kts | 316° |
| 2026-04-19 01:55 | 30.19428 | -86.27052 | 3312 ft | 204 kts | 316° |
| 2026-04-19 01:55 | 30.20431 | -86.28218 | 3089 ft | 204 kts | 316° |
| 2026-04-19 01:56 | 30.21432 | -86.29380 | 2866 ft | 203 kts | 315° |
| 2026-04-19 01:56 | 30.22411 | -86.30518 | 2632 ft | 197 kts | 314° |
| 2026-04-19 01:56 | 30.23373 | -86.31639 | 2398 ft | 195 kts | 314° |
| 2026-04-19 01:56 | 30.24325 | -86.32747 | 2150 ft | 193 kts | 313° |
| 2026-04-19 01:57 | 30.25261 | -86.33839 | 2019 ft | 188 kts | 314° |
| 2026-04-19 01:57 | 30.26229 | -86.34816 | 2011 ft | 183 kts | 321° |
| 2026-04-19 01:57 | 30.27243 | -86.35705 | 2011 ft | 186 kts | 321° |
| 2026-04-19 01:57 | 30.28290 | -86.36640 | 2013 ft | 194 kts | 320° |
| 2026-04-19 01:58 | 30.29360 | -86.37599 | 2025 ft | 192 kts | 320° |
| 2026-04-19 01:58 | 30.30384 | -86.38514 | 2020 ft | 185 kts | 321° |
| 2026-04-19 01:58 | 30.31399 | -86.39424 | 1956 ft | 184 kts | 320° |
| 2026-04-19 01:58 | 30.32330 | -86.40253 | 1743 ft | 150 kts | 320° |
| 2026-04-19 01:59 | 30.33124 | -86.40968 | 1537 ft | 139 kts | 320° |
| 2026-04-19 01:59 | 30.33848 | -86.41619 | 1354 ft | 124 kts | 320° |
| 2026-04-19 01:59 | 30.34472 | -86.42176 | 1214 ft | 105 kts | 319° |
| 2026-04-19 01:59 | 30.35039 | -86.42691 | 1093 ft | 105 kts | 319° |
| 2026-04-19 02:00 | 30.35638 | -86.43230 | 982 ft | 107 kts | 319° |
| 2026-04-19 02:00 | 30.36178 | -86.43711 | 848 ft | 92 kts | 319° |
| 2026-04-19 02:00 | 30.36684 | -86.44167 | 727 ft | 92 kts | 319° |
| 2026-04-19 02:00 | 30.37195 | -86.44626 | 613 ft | 94 kts | 319° |
| 2026-04-19 02:01 | 30.37705 | -86.45095 | 494 ft | 94 kts | 321° |
| 2026-04-19 02:01 | 30.38218 | -86.45559 | 354 ft | 92 kts | 322° |
| 2026-04-19 02:01 | 30.38716 | -86.46003 | 219 ft | 89 kts | 321° |
| 2026-04-19 02:01 | 30.39208 | -86.46440 | 122 ft | 89 kts | 323° |
| 2026-04-19 02:02 | 30.39690 | -86.46861 | 30 ft | 82 kts | 322° |
| 2026-04-19 02:02 | 30.40034 | -86.47176 | 27 ft | 18 kts | 298° |
| 2026-04-19 02:02 | 30.39988 | -86.47247 | 28 ft | 5 kts | 230° |
| 2026-04-19 02:02 | 30.39975 | -86.47265 | 26 ft | 4 kts | 225° |
| 2026-04-19 02:03 | 30.39946 | -86.47267 | 26 ft | 4 kts | 169° |
| 2026-04-19 02:03 | 30.39940 | -86.47270 | 26 ft | 0 kts | 231° |